Time;durP1;ratioP1;P1;durP2;ratioP2;P2;SDS_P1;SDS_P2;PMS_P1;PMS_P2;Temp;Humidity;BMP_temperature;BMP_pressure;BME280_temperature;BME280_humidity;BME280_pressure;Samples;Min_cycle;Max_cycle;Signal;HPM_P1;HPM_P2
2022/01/09 00:01:16;;;;;;;6.03;4.90;;;0.30;61.60;;;;;;5042497;28;21220;-53
2022/01/09 00:03:44;;;;;;;6.20;4.80;;;0.30;69.10;;;;;;5043786;28;20466;-49
2022/01/09 00:06:10;;;;;;;5.73;5.20;;;0.30;65.90;;;;;;5044886;28;20925;-49
2022/01/09 00:08:38;;;;;;;6.53;5.27;;;0.20;63.50;;;;;;5043889;28;21066;-48
2022/01/09 00:11:04;;;;;;;6.97;5.43;;;0.20;56.00;;;;;;5045172;28;20508;-48
2022/01/09 00:13:31;;;;;;;7.23;4.63;;;0.20;64.50;;;;;;5043277;28;20545;-47
2022/01/09 00:15:57;;;;;;;7.23;5.60;;;0.20;63.60;;;;;;5041803;28;20458;-48
2022/01/09 00:18:24;;;;;;;8.87;5.50;;;0.10;60.80;;;;;;5044304;28;20541;-49
2022/01/09 00:20:52;;;;;;;11.60;5.10;;;0.20;72.90;;;;;;5043731;28;20578;-48
2022/01/09 00:23:18;;;;;;;4.80;4.27;;;0.20;74.80;;;;;;5045709;28;20544;-48
2022/01/09 00:25:45;;;;;;;8.50;5.60;;;0.20;76.00;;;;;;5044567;28;21073;-49
2022/01/09 00:28:12;;;;;;;7.57;5.80;;;0.20;77.80;;;;;;5044418;28;20564;-48
2022/01/09 00:30:38;;;;;;;7.00;5.17;;;0.20;73.70;;;;;;5046553;28;20564;-49
2022/01/09 00:33:06;;;;;;;7.00;4.90;;;0.10;74.80;;;;;;5041705;28;20573;-48
2022/01/09 00:35:32;;;;;;;6.00;4.80;;;0.20;80.20;;;;;;5042203;28;20468;-49
2022/01/09 00:38:01;;;;;;;9.43;4.50;;;0.20;81.90;;;;;;5045557;28;20569;-49
2022/01/09 00:40:27;;;;;;;5.00;4.60;;;0.20;85.70;;;;;;5043044;28;21034;-48
2022/01/09 00:42:54;;;;;;;6.70;5.20;;;0.20;85.40;;;;;;5041647;28;20542;-49
2022/01/09 00:45:20;;;;;;;4.90;4.13;;;0.20;88.70;;;;;;5041933;28;20469;-48
2022/01/09 00:47:47;;;;;;;9.10;5.43;;;0.10;89.50;;;;;;5041886;28;20604;-48
2022/01/09 00:50:15;;;;;;;10.57;4.60;;;0.20;84.80;;;;;;5044505;28;21089;-49
2022/01/09 00:52:42;;;;;;;4.90;4.60;;;0.10;87.80;;;;;;5040631;28;20564;-48
2022/01/09 00:55:11;;;;;;;4.53;4.13;;;0.10;87.80;;;;;;5042828;28;20652;-49
2022/01/09 00:57:37;;;;;;;4.73;4.37;;;0.10;94.90;;;;;;5042717;28;20881;-47
2022/01/09 01:00:06;;;;;;;7.60;4.80;;;0.20;99.90;;;;;;5042226;28;20578;-48
2022/01/09 01:02:32;;;;;;;9.17;4.60;;;0.20;99.90;;;;;;5041195;28;21015;-47
2022/01/09 01:04:59;;;;;;;6.90;4.40;;;0.20;99.90;;;;;;5039066;28;20561;-47
2022/01/09 01:07:27;;;;;;;6.20;4.70;;;0.10;99.90;;;;;;5041810;28;20589;-48
2022/01/09 01:09:56;;;;;;;11.53;4.60;;;0.10;99.90;;;;;;5042976;28;20564;-48
2022/01/09 01:12:25;;;;;;;5.60;4.43;;;0.10;99.90;;;;;;5043336;28;20588;-49
2022/01/09 01:14:52;;;;;;;5.90;4.30;;;0.00;99.90;;;;;;5043417;28;20453;-49
2022/01/09 01:17:19;;;;;;;5.87;4.17;;;0.00;99.90;;;;;;5043706;28;20449;-47
2022/01/09 01:19:46;;;;;;;9.77;4.43;;;0.00;99.90;;;;;;5043686;28;20461;-48
2022/01/09 01:22:12;;;;;;;11.97;5.77;;;0.00;99.90;;;;;;5042373;28;20550;-49
2022/01/09 01:24:39;;;;;;;4.67;4.20;;;0.00;99.90;;;;;;5043024;28;20592;-48
2022/01/09 01:27:06;;;;;;;4.80;4.37;;;0.00;99.90;;;;;;5043435;28;20481;-52
2022/01/09 01:29:35;;;;;;;4.40;3.70;;;0.00;99.90;;;;;;5041320;28;22357;-52
2022/01/09 01:32:01;;;;;;;7.17;4.87;;;0.00;99.90;;;;;;5045828;28;20478;-52
2022/01/09 01:34:28;;;;;;;5.20;4.50;;;0.00;99.90;;;;;;5039632;28;20553;-51
2022/01/09 01:36:54;;;;;;;5.83;4.07;;;0.00;99.90;;;;;;5043967;28;20557;-52
2022/01/09 01:39:21;;;;;;;5.77;4.20;;;0.00;99.90;;;;;;5044797;28;20867;-52
2022/01/09 01:41:48;;;;;;;4.67;4.07;;;-0.10;99.90;;;;;;5042805;28;20572;-52
2022/01/09 01:44:15;;;;;;;7.90;5.53;;;-0.10;99.40;;;;;;5044261;28;20454;-52
2022/01/09 01:46:43;;;;;;;5.00;4.50;;;-0.10;95.10;;;;;;5040995;28;21059;-52
2022/01/09 01:49:12;;;;;;;5.77;5.03;;;-0.10;95.90;;;;;;5041255;28;20523;-51
2022/01/09 01:51:41;;;;;;;7.37;4.77;;;-0.20;99.90;;;;;;5044228;28;20477;-52
2022/01/09 01:54:09;;;;;;;5.43;4.60;;;-0.10;99.90;;;;;;5045829;28;20461;-52
2022/01/09 01:56:36;;;;;;;9.10;4.47;;;-0.10;99.90;;;;;;5046601;28;20485;-51
2022/01/09 01:59:03;;;;;;;5.40;4.80;;;-0.10;99.90;;;;;;5047462;28;21078;-52
2022/01/09 02:01:30;;;;;;;6.70;4.43;;;-0.10;99.90;;;;;;5046212;28;20568;-52
2022/01/09 02:03:58;;;;;;;8.37;5.00;;;-0.10;99.90;;;;;;5046926;28;21204;-52
2022/01/09 02:06:25;;;;;;;5.87;5.27;;;-0.10;99.90;;;;;;5046309;28;20557;-53
2022/01/09 02:08:52;;;;;;;7.10;4.70;;;-0.10;99.90;;;;;;5046500;28;21034;-52
2022/01/09 02:11:19;;;;;;;5.63;4.70;;;-0.10;99.90;;;;;;5046836;28;20585;-52
2022/01/09 02:13:46;;;;;;;5.57;5.03;;;-0.10;99.90;;;;;;5047256;28;20569;-52
2022/01/09 02:16:17;;;;;;;4.83;4.43;;;-0.10;99.90;;;;;;5047059;28;20832;-52
2022/01/09 02:18:44;;;;;;;7.83;5.30;;;-0.10;99.90;;;;;;5043828;28;20458;-53
2022/01/09 02:21:19;;;;;;;6.33;4.10;;;-0.10;99.90;;;;;;5048082;28;21010;-53
2022/01/09 02:23:49;;;;;;;8.33;4.60;;;-0.10;99.90;;;;;;5046879;28;20462;-52
2022/01/09 02:26:18;;;;;;;5.03;4.63;;;0.00;99.90;;;;;;5048652;28;20492;-52
2022/01/09 02:28:44;;;;;;;6.30;5.00;;;-0.10;99.90;;;;;;5041993;28;20535;-53
2022/01/09 02:31:11;;;;;;;7.77;4.83;;;-0.10;99.90;;;;;;5043172;28;20595;-52
2022/01/09 02:33:37;;;;;;;6.73;5.10;;;0.00;99.90;;;;;;5042097;28;20878;-53
2022/01/09 02:36:04;;;;;;;5.67;5.00;;;-0.10;99.90;;;;;;5043947;28;20991;-52
2022/01/09 02:38:32;;;;;;;5.13;4.60;;;-0.10;99.90;;;;;;5046444;28;20481;-52
2022/01/09 02:40:59;;;;;;;4.77;4.30;;;-0.10;99.90;;;;;;5044964;28;21070;-52
2022/01/09 02:43:26;;;;;;;10.83;5.20;;;-0.10;99.90;;;;;;5043727;28;20588;-53
2022/01/09 02:46:03;;;;;;;5.17;4.67;;;-0.20;99.90;;;;;;5045636;28;20935;-52
2022/01/09 02:48:33;;;;;;;4.67;4.27;;;-0.20;99.90;;;;;;5047909;28;20564;-52
2022/01/09 02:51:04;;;;;;;7.20;5.03;;;-0.20;99.90;;;;;;5045138;28;20489;-53
2022/01/09 02:53:34;;;;;;;5.07;4.67;;;-0.20;99.90;;;;;;5043133;28;20469;-52
2022/01/09 02:56:03;;;;;;;5.50;5.00;;;-0.20;99.90;;;;;;5046254;28;20458;-53
2022/01/09 02:58:30;;;;;;;9.07;5.40;;;-0.20;99.90;;;;;;5045711;28;21031;-52
2022/01/09 03:00:57;;;;;;;6.03;4.80;;;-0.20;95.50;;;;;;5046892;28;20576;-52
2022/01/09 03:03:23;;;;;;;7.27;5.33;;;-0.30;91.30;;;;;;5046822;28;20566;-51
2022/01/09 03:05:50;;;;;;;5.90;4.93;;;-0.30;86.60;;;;;;5044263;28;20557;-52
2022/01/09 03:08:17;;;;;;;6.83;5.37;;;-0.30;84.60;;;;;;5043990;28;20481;-53
2022/01/09 03:10:43;;;;;;;8.40;6.20;;;-0.30;79.40;;;;;;5045625;28;20510;-52
2022/01/09 03:13:11;;;;;;;5.73;5.13;;;-0.40;77.70;;;;;;5048790;28;20466;-52
2022/01/09 03:15:38;;;;;;;7.60;5.93;;;-0.40;83.80;;;;;;5047263;28;20508;-53
2022/01/09 03:18:05;;;;;;;6.53;5.47;;;-0.40;76.90;;;;;;5044550;28;20482;-51
2022/01/09 03:20:32;;;;;;;8.80;5.70;;;-0.40;76.30;;;;;;5044926;28;20903;-52
2022/01/09 03:22:58;;;;;;;6.17;5.53;;;-0.40;74.90;;;;;;5043852;28;20975;-52
2022/01/09 03:25:26;;;;;;;8.13;5.70;;;-0.40;74.20;;;;;;5046071;28;20458;-52
2022/01/09 03:27:54;;;;;;;7.13;6.40;;;-0.40;71.20;;;;;;5045580;28;20514;-52
2022/01/09 03:30:23;;;;;;;8.60;4.90;;;-0.40;65.80;;;;;;5048531;28;21062;-52
2022/01/09 03:32:52;;;;;;;7.00;5.43;;;-0.40;68.30;;;;;;5046497;28;20544;-52
2022/01/09 03:35:21;;;;;;;6.87;5.70;;;-0.50;70.20;;;;;;5040698;28;20553;-52
2022/01/09 03:37:49;;;;;;;5.63;5.13;;;-0.50;65.40;;;;;;5058165;28;20445;-52
2022/01/09 03:40:18;;;;;;;8.87;5.97;;;-0.50;64.40;;;;;;5046607;28;20608;-52
2022/01/09 03:42:45;;;;;;;11.40;6.53;;;-0.50;64.30;;;;;;5046556;28;20947;-52
2022/01/09 03:45:12;;;;;;;6.97;5.70;;;-0.50;63.00;;;;;;5043259;28;20565;-52
2022/01/09 03:47:40;;;;;;;8.87;6.57;;;-0.50;65.40;;;;;;5044861;28;20569;-52
2022/01/09 03:50:10;;;;;;;6.93;5.97;;;-0.50;66.40;;;;;;5041873;28;21025;-52
2022/01/09 03:52:38;;;;;;;6.40;5.80;;;-0.50;63.20;;;;;;5047186;28;20449;-52
2022/01/09 03:55:06;;;;;;;7.20;6.50;;;-0.50;61.80;;;;;;5042343;28;20463;-52
2022/01/09 03:57:32;;;;;;;6.20;5.60;;;-0.50;64.30;;;;;;5047888;28;20540;-52
2022/01/09 03:59:59;;;;;;;7.10;6.17;;;-0.50;60.40;;;;;;5047094;28;20494;-52
2022/01/09 04:02:25;;;;;;;6.67;5.93;;;-0.50;60.10;;;;;;5042509;28;20549;-52
2022/01/09 04:04:53;;;;;;;7.30;5.43;;;-0.50;52.40;;;;;;5043467;28;20486;-52
2022/01/09 04:07:20;;;;;;;8.57;5.50;;;-0.50;53.40;;;;;;5045294;28;20590;-52
2022/01/09 04:09:48;;;;;;;7.03;5.90;;;-0.60;44.90;;;;;;5044209;28;20548;-52
2022/01/09 04:12:18;;;;;;;6.83;5.90;;;-0.60;49.90;;;;;;5044908;28;20489;-53
2022/01/09 04:14:46;;;;;;;7.93;5.83;;;-0.60;46.60;;;;;;5044529;28;20991;-53
2022/01/09 04:17:18;;;;;;;6.30;5.60;;;-0.60;44.60;;;;;;5044495;28;20501;-52
2022/01/09 04:19:45;;;;;;;7.30;5.60;;;-0.60;42.80;;;;;;5042260;28;20462;-52
2022/01/09 04:22:12;;;;;;;7.33;6.13;;;-0.60;45.70;;;;;;5046278;28;20552;-52
2022/01/09 04:24:39;;;;;;;6.30;5.10;;;-0.60;49.90;;;;;;5042440;28;20458;-53
2022/01/09 04:27:06;;;;;;;7.17;6.13;;;-0.50;45.70;;;;;;5043649;28;20494;-52
2022/01/09 04:29:33;;;;;;;7.23;6.20;;;-0.60;46.70;;;;;;5044621;28;20580;-57
2022/01/09 04:32:00;;;;;;;10.30;6.50;;;-0.50;47.80;;;;;;5044388;28;20584;-56
2022/01/09 04:34:26;;;;;;;7.80;5.93;;;-0.50;50.80;;;;;;5040412;28;20552;-56
2022/01/09 04:36:53;;;;;;;7.77;5.17;;;-0.50;54.20;;;;;;5041847;28;20466;-56
2022/01/09 04:39:21;;;;;;;8.80;5.57;;;-0.60;53.70;;;;;;5043206;28;20519;-57
2022/01/09 04:41:47;;;;;;;7.70;5.10;;;-0.50;52.00;;;;;;5043886;28;20550;-57
2022/01/09 04:44:14;;;;;;;8.33;5.73;;;-0.50;58.10;;;;;;5043200;28;20462;-57
2022/01/09 04:46:46;;;;;;;7.33;5.43;;;-0.50;60.70;;;;;;5046247;28;20458;-57
2022/01/09 04:49:12;;;;;;;5.60;5.10;;;-0.60;53.20;;;;;;5046335;28;20485;-56
2022/01/09 04:51:39;;;;;;;7.43;5.20;;;-0.60;61.40;;;;;;5043845;28;20548;-57
2022/01/09 04:54:06;;;;;;;5.87;5.10;;;-0.50;46.60;;;;;;5041459;28;20462;-57
2022/01/09 04:56:34;;;;;;;7.40;4.87;;;-0.50;54.80;;;;;;5043382;28;20469;-57
2022/01/09 04:59:00;;;;;;;6.13;5.53;;;-0.60;61.80;;;;;;5039742;28;20551;-57
2022/01/09 05:01:27;;;;;;;8.43;5.93;;;-0.50;61.20;;;;;;5044430;28;20568;-57
2022/01/09 05:03:53;;;;;;;5.80;4.70;;;-0.50;63.70;;;;;;5040766;28;20548;-56
2022/01/09 05:06:21;;;;;;;7.70;5.03;;;-0.50;61.60;;;;;;5041627;28;20919;-57
2022/01/09 05:08:47;;;;;;;5.67;4.67;;;-0.50;68.00;;;;;;5043791;28;20489;-56
2022/01/09 05:11:14;;;;;;;6.37;4.97;;;-0.50;70.70;;;;;;5042218;28;20559;-56
2022/01/09 05:13:42;;;;;;;7.33;5.70;;;-0.50;69.20;;;;;;5040479;28;20497;-56
2022/01/09 05:16:08;;;;;;;5.63;5.00;;;-0.50;70.20;;;;;;5043881;28;20544;-56
2022/01/09 05:18:41;;;;;;;5.47;4.97;;;-0.50;73.20;;;;;;5042779;28;20613;-56
2022/01/09 05:21:08;;;;;;;8.10;5.50;;;-0.40;71.00;;;;;;5043416;28;20486;-57
2022/01/09 05:23:34;;;;;;;5.90;4.80;;;-0.50;72.70;;;;;;5042940;28;20504;-56
2022/01/09 05:26:01;;;;;;;7.00;5.30;;;-0.50;78.50;;;;;;5041572;28;20587;-57
2022/01/09 05:28:27;;;;;;;6.50;5.50;;;-0.40;86.90;;;;;;5044516;28;20577;-55
2022/01/09 05:30:55;;;;;;;13.10;5.47;;;-0.40;84.10;;;;;;5048427;28;20577;-56
2022/01/09 05:33:22;;;;;;;5.47;4.50;;;-0.40;85.70;;;;;;5048259;28;20564;-55
2022/01/09 05:35:48;;;;;;;7.13;4.93;;;-0.40;86.70;;;;;;5046062;28;21019;-55
2022/01/09 05:38:17;;;;;;;5.77;4.63;;;-0.50;80.40;;;;;;5047249;28;20568;-57
2022/01/09 05:40:43;;;;;;;5.30;4.60;;;-0.40;76.40;;;;;;5047162;28;20923;-56
2022/01/09 05:43:11;;;;;;;5.47;4.67;;;-0.40;82.90;;;;;;5045825;28;20485;-55
2022/01/09 05:45:37;;;;;;;5.47;4.03;;;-0.50;76.10;;;;;;5043734;28;20507;-55
2022/01/09 05:48:06;;;;;;;6.73;4.63;;;-0.40;86.40;;;;;;5048031;28;20572;-56
2022/01/09 05:50:33;;;;;;;9.33;5.67;;;-0.40;84.90;;;;;;5049316;28;20589;-55
2022/01/09 05:52:59;;;;;;;5.40;4.90;;;-0.40;87.40;;;;;;5047183;28;20466;-56
2022/01/09 05:55:26;;;;;;;6.17;4.90;;;-0.40;83.20;;;;;;5047964;28;20546;-56
2022/01/09 05:57:53;;;;;;;6.50;5.53;;;-0.50;80.40;;;;;;5044834;28;20512;-56
2022/01/09 06:00:19;;;;;;;6.43;5.00;;;-0.40;72.50;;;;;;5047378;28;20517;-56
2022/01/09 06:02:46;;;;;;;5.33;4.93;;;-0.40;83.00;;;;;;5046768;28;20556;-56
2022/01/09 06:05:14;;;;;;;4.37;4.07;;;-0.40;90.80;;;;;;5046964;28;20552;-57
2022/01/09 06:07:42;;;;;;;6.27;4.40;;;-0.40;94.00;;;;;;5046409;28;21116;-55
2022/01/09 06:10:09;;;;;;;4.97;4.60;;;-0.30;94.30;;;;;;5047875;28;20576;-56
2022/01/09 06:12:37;;;;;;;8.30;5.83;;;-0.30;94.90;;;;;;5046210;28;20485;-56
2022/01/09 06:15:05;;;;;;;5.83;5.23;;;-0.30;94.90;;;;;;5043173;28;20549;-57
2022/01/09 06:17:35;;;;;;;5.67;5.10;;;-0.30;93.40;;;;;;5044365;28;21027;-55
2022/01/09 06:20:02;;;;;;;6.90;6.13;;;-0.30;98.70;;;;;;5047249;28;21083;-56
2022/01/09 06:22:30;;;;;;;5.03;4.53;;;-0.30;96.70;;;;;;5047224;28;20983;-56
2022/01/09 06:24:56;;;;;;;6.53;5.30;;;-0.30;91.60;;;;;;5045445;28;20490;-57
2022/01/09 06:27:23;;;;;;;7.57;5.40;;;-0.30;98.50;;;;;;5045558;28;20565;-56
2022/01/09 06:29:50;;;;;;;5.43;4.90;;;-0.30;93.80;;;;;;5045744;28;20504;-56
2022/01/09 06:32:17;;;;;;;5.37;4.87;;;-0.20;99.90;;;;;;5044979;28;20486;-56
2022/01/09 06:34:43;;;;;;;6.53;5.20;;;-0.20;97.60;;;;;;5045538;28;20860;-56
2022/01/09 06:37:12;;;;;;;9.33;5.43;;;-0.20;99.30;;;;;;5047706;28;20504;-56
2022/01/09 06:39:40;;;;;;;4.77;4.43;;;-0.20;99.90;;;;;;5045611;28;20559;-56
2022/01/09 06:42:07;;;;;;;5.80;5.10;;;-0.20;99.90;;;;;;5044204;28;20528;-55
2022/01/09 06:44:33;;;;;;;6.70;5.70;;;-0.10;99.90;;;;;;5045384;28;20552;-57
2022/01/09 06:47:00;;;;;;;8.10;5.00;;;-0.10;99.90;;;;;;5042926;28;21092;-55
2022/01/09 06:49:26;;;;;;;7.00;5.30;;;0.00;99.90;;;;;;5044974;28;20539;-56
2022/01/09 06:51:53;;;;;;;7.57;5.13;;;0.00;99.90;;;;;;5046794;28;20568;-56
2022/01/09 06:54:19;;;;;;;6.03;5.10;;;0.00;99.90;;;;;;5046343;28;22508;-56
2022/01/09 06:56:47;;;;;;;6.50;5.20;;;0.10;99.90;;;;;;5045978;28;20500;-57
2022/01/09 06:59:14;;;;;;;5.17;4.63;;;0.10;99.90;;;;;;5042383;28;21031;-57
2022/01/09 07:01:40;;;;;;;9.53;4.90;;;0.10;99.90;;;;;;5043823;28;20576;-56
2022/01/09 07:04:07;;;;;;;6.23;5.10;;;0.10;99.90;;;;;;5044978;28;20531;-57
2022/01/09 07:06:35;;;;;;;10.07;7.20;;;0.20;99.90;;;;;;5044718;28;20465;-56
2022/01/09 07:09:01;;;;;;;15.20;11.43;;;0.20;99.90;;;;;;5046338;28;20576;-55
2022/01/09 07:11:28;;;;;;;8.53;7.40;;;0.20;99.90;;;;;;5043733;28;20478;-56
2022/01/09 07:13:56;;;;;;;6.27;5.60;;;0.20;99.90;;;;;;5045092;28;20980;-57
2022/01/09 07:16:24;;;;;;;7.30;6.60;;;0.20;99.90;;;;;;5044176;28;20473;-57
2022/01/09 07:18:50;;;;;;;5.87;5.27;;;0.20;99.90;;;;;;5043543;28;20550;-56
2022/01/09 07:21:17;;;;;;;7.07;4.87;;;0.20;99.90;;;;;;5044380;28;20501;-57
2022/01/09 07:23:43;;;;;;;9.37;5.10;;;0.20;99.90;;;;;;5046325;28;20497;-57
2022/01/09 07:26:10;;;;;;;8.80;5.87;;;0.20;99.90;;;;;;5044775;28;21074;-57
2022/01/09 07:28:36;;;;;;;4.83;4.40;;;0.30;99.90;;;;;;5045640;28;20576;-56
2022/01/09 07:31:05;;;;;;;9.80;5.37;;;0.30;99.90;;;;;;5039629;28;20524;-56
2022/01/09 07:33:31;;;;;;;8.70;4.90;;;0.30;99.90;;;;;;5043466;28;20923;-56
2022/01/09 07:35:58;;;;;;;6.03;3.90;;;0.40;99.90;;;;;;5041966;28;20876;-57
2022/01/09 07:38:24;;;;;;;4.67;4.23;;;0.30;99.90;;;;;;5045751;28;20553;-57
2022/01/09 07:40:51;;;;;;;10.53;5.77;;;0.40;99.90;;;;;;5044862;28;20575;-56
2022/01/09 07:43:18;;;;;;;5.57;4.50;;;0.40;99.90;;;;;;5045736;28;20466;-56
2022/01/09 07:45:45;;;;;;;6.53;4.80;;;0.40;99.90;;;;;;5042175;28;20465;-56
2022/01/09 07:48:12;;;;;;;5.50;4.57;;;0.40;99.90;;;;;;5042984;28;20554;-57
2022/01/09 07:50:39;;;;;;;8.97;5.20;;;0.40;99.90;;;;;;5041945;28;20568;-56
2022/01/09 07:53:06;;;;;;;5.97;5.10;;;0.50;99.90;;;;;;5043374;28;21007;-56
2022/01/09 07:55:32;;;;;;;5.23;4.27;;;0.50;99.90;;;;;;5044748;28;20561;-56
2022/01/09 07:57:59;;;;;;;10.20;7.13;;;0.50;99.90;;;;;;5041831;28;21054;-56
2022/01/09 08:00:26;;;;;;;8.57;6.03;;;0.60;99.90;;;;;;5042586;28;21037;-57
2022/01/09 08:02:53;;;;;;;9.70;7.47;;;0.60;99.90;;;;;;5046409;28;20959;-55
2022/01/09 08:05:21;;;;;;;8.90;6.50;;;0.60;99.90;;;;;;5040890;28;20457;-57
2022/01/09 08:07:49;;;;;;;6.30;5.10;;;0.70;99.90;;;;;;5042129;28;20541;-56
2022/01/09 08:10:16;;;;;;;7.30;5.17;;;0.70;99.90;;;;;;5041961;28;20489;-56
2022/01/09 08:12:43;;;;;;;9.47;6.23;;;0.70;99.90;;;;;;5043519;28;20549;-55
2022/01/09 08:15:11;;;;;;;9.20;6.00;;;0.70;99.90;;;;;;5043081;28;20600;-58
2022/01/09 08:17:37;;;;;;;7.17;5.10;;;0.80;99.90;;;;;;5043800;28;20457;-56
2022/01/09 08:20:05;;;;;;;8.90;6.10;;;0.70;99.90;;;;;;5041564;28;20545;-56
2022/01/09 08:22:33;;;;;;;7.97;6.20;;;0.70;1.40;;;;;;5042068;28;20496;-57
2022/01/09 08:24:59;;;;;;;11.30;5.80;;;0.80;99.90;;;;;;5035981;28;20503;-56
2022/01/09 08:27:26;;;;;;;9.10;5.90;;;0.80;99.90;;;;;;5039428;28;20488;-56
2022/01/09 08:29:53;;;;;;;8.00;5.40;;;0.80;99.90;;;;;;5045667;28;20577;-56
2022/01/09 08:32:19;;;;;;;6.57;5.30;;;0.80;99.90;;;;;;5042404;28;20911;-57
2022/01/09 08:34:46;;;;;;;13.13;6.37;;;0.80;99.90;;;;;;5040692;28;20556;-56
2022/01/09 08:37:12;;;;;;;5.50;5.00;;;0.90;99.90;;;;;;5038475;28;20770;-56
2022/01/09 08:39:41;;;;;;;10.30;6.07;;;0.80;99.90;;;;;;5042828;28;20461;-56
2022/01/09 08:42:08;;;;;;;7.93;5.50;;;0.90;99.90;;;;;;5042714;28;20962;-56
2022/01/09 08:44:35;;;;;;;7.77;5.70;;;0.90;99.90;;;;;;5039486;28;20560;-56
2022/01/09 08:47:02;;;;;;;7.63;5.53;;;1.00;99.90;;;;;;5041273;28;20462;-57
2022/01/09 08:49:28;;;;;;;9.80;5.90;;;1.00;99.90;;;;;;5043250;28;20517;-57
2022/01/09 08:51:55;;;;;;;8.97;5.80;;;1.00;99.90;;;;;;5040316;28;20565;-59
2022/01/09 08:54:22;;;;;;;8.03;6.20;;;1.00;99.90;;;;;;5047060;28;20465;-52
2022/01/09 08:56:50;;;;;;;8.67;5.80;;;1.00;99.90;;;;;;5041822;28;20458;-51
2022/01/09 08:59:17;;;;;;;6.20;5.60;;;1.00;99.90;;;;;;5042806;28;20466;-50
2022/01/09 09:01:44;;;;;;;7.00;6.10;;;1.00;99.90;;;;;;5042559;28;20569;-51
2022/01/09 09:04:11;;;;;;;6.33;5.20;;;1.00;99.90;;;;;;5038409;28;20450;-52
2022/01/09 09:06:38;;;;;;;11.33;6.20;;;1.10;99.90;;;;;;5041637;28;20550;-52
2022/01/09 09:09:04;;;;;;;9.10;6.80;;;1.10;99.90;;;;;;5039710;28;20569;-51
2022/01/09 09:11:31;;;;;;;8.03;6.40;;;1.10;99.90;;;;;;5045341;28;20597;-51
2022/01/09 09:13:59;;;;;;;6.30;5.77;;;1.20;99.90;;;;;;5045830;28;20454;-51
2022/01/09 09:16:26;;;;;;;6.60;5.80;;;1.20;99.90;;;;;;5046174;28;20493;-51
2022/01/09 09:18:52;;;;;;;7.30;5.40;;;1.30;99.90;;;;;;5045175;28;20482;-51
2022/01/09 09:21:19;;;;;;;6.53;5.57;;;1.30;99.90;;;;;;5046840;28;21093;-51
2022/01/09 09:23:47;;;;;;;6.03;5.53;;;1.30;99.90;;;;;;5043886;28;20454;-51
2022/01/09 09:26:14;;;;;;;9.00;5.60;;;1.40;99.90;;;;;;5047011;28;20545;-52
2022/01/09 09:28:41;;;;;;;12.50;9.00;;;1.30;99.90;;;;;;5049561;28;20520;-52
2022/01/09 09:31:09;;;;;;;25.37;14.53;;;1.40;99.90;;;;;;5048383;28;20520;-52
2022/01/09 09:33:36;;;;;;;10.17;8.13;;;1.40;99.90;;;;;;5050198;28;20446;-52
2022/01/09 09:36:03;;;;;;;7.30;5.77;;;1.50;99.90;;;;;;5042405;28;21302;-52
2022/01/09 09:38:31;;;;;;;7.63;5.77;;;1.50;99.90;;;;;;5044439;28;20465;-52
2022/01/09 09:40:58;;;;;;;8.53;5.87;;;1.50;99.90;;;;;;5045908;28;20556;-52
2022/01/09 09:43:24;;;;;;;6.63;5.93;;;1.50;99.90;;;;;;5039813;28;20493;-52
2022/01/09 09:45:52;;;;;;;7.20;6.23;;;1.60;99.90;;;;;;5044184;28;20478;-52
2022/01/09 09:48:20;;;;;;;8.90;6.20;;;1.60;99.90;;;;;;5041746;28;20458;-51
2022/01/09 09:50:46;;;;;;;10.77;6.67;;;1.60;99.90;;;;;;5047470;28;20576;-52
2022/01/09 09:53:13;;;;;;;9.30;6.83;;;1.70;99.90;;;;;;5043472;28;20597;-52
2022/01/09 09:55:40;;;;;;;5.97;5.37;;;1.70;99.90;;;;;;5043462;28;20466;-52
2022/01/09 09:58:07;;;;;;;12.20;7.07;;;1.60;99.90;;;;;;5049591;28;20501;-51
2022/01/09 10:00:35;;;;;;;6.00;5.27;;;1.70;99.90;;;;;;5045300;28;20509;-52
2022/01/09 10:03:03;;;;;;;7.43;5.80;;;1.70;99.90;;;;;;5045425;28;20462;-53
2022/01/09 10:05:35;;;;;;;6.00;5.40;;;1.70;99.90;;;;;;5042955;28;20462;-51
2022/01/09 10:08:06;;;;;;;10.83;6.10;;;1.70;99.90;;;;;;5041601;28;20512;-52
2022/01/09 10:10:34;;;;;;;6.37;5.67;;;1.80;99.90;;;;;;5043859;28;20525;-51
2022/01/09 10:13:07;;;;;;;9.60;6.50;;;1.80;99.90;;;;;;5043104;28;20622;-51
2022/01/09 10:15:44;;;;;;;6.60;5.50;;;1.80;99.90;;;;;;5045490;28;20493;-52
2022/01/09 10:18:11;;;;;;;8.97;5.60;;;1.80;99.90;;;;;;5047535;28;20498;-51
2022/01/09 10:20:39;;;;;;;6.57;5.20;;;1.80;99.90;;;;;;5046695;28;20589;-51
2022/01/09 10:23:05;;;;;;;5.27;4.33;;;1.80;99.90;;;;;;5052004;28;20496;-51
2022/01/09 10:25:36;;;;;;;6.37;5.17;;;1.80;99.90;;;;;;5050280;28;20537;-53
2022/01/09 10:30:40;;;;;;;4.70;4.30;;;1.80;99.90;;;;;;5042806;28;20480;-56
2022/01/09 10:33:08;;;;;;;6.13;5.13;;;1.90;99.90;;;;;;5046465;28;20822;-56
2022/01/09 10:35:37;;;;;;;6.20;5.00;;;2.00;99.90;;;;;;5042457;28;20509;-56
2022/01/09 10:38:16;;;;;;;5.03;4.63;;;2.00;99.90;;;;;;5044708;28;20485;-53
2022/01/09 10:40:45;;;;;;;5.77;4.97;;;2.10;99.90;;;;;;5028755;28;20457;-57
2022/01/09 10:43:16;;;;;;;10.13;5.20;;;2.10;99.90;;;;;;5031337;28;20956;-53
2022/01/09 10:45:46;;;;;;;6.83;4.67;;;2.00;99.90;;;;;;5030282;28;20509;-54
2022/01/09 10:48:17;;;;;;;5.70;5.00;;;2.10;99.90;;;;;;5027907;28;21079;-56
2022/01/09 10:50:45;;;;;;;9.50;6.20;;;2.10;99.90;;;;;;5031133;28;21057;-57
2022/01/09 10:53:25;;;;;;;6.13;4.50;;;2.20;99.90;;;;;;5033645;28;20490;-56
2022/01/09 10:56:07;;;;;;;5.80;4.90;;;2.30;99.90;;;;;;5029782;28;20459;-57
2022/01/09 10:58:35;;;;;;;5.30;4.80;;;2.30;99.90;;;;;;5031839;28;20483;-56
2022/01/09 11:01:15;;;;;;;7.50;5.00;;;2.30;99.90;;;;;;5031281;28;20549;-57
2022/01/09 11:03:44;;;;;;;5.93;5.20;;;2.40;99.90;;;;;;5027872;28;20948;-56
2022/01/09 11:06:11;;;;;;;9.53;4.70;;;2.40;99.90;;;;;;5031736;28;20972;-57
2022/01/09 11:08:41;;;;;;;5.17;4.60;;;2.40;99.90;;;;;;5029021;28;20505;-56
2022/01/09 11:11:16;;;;;;;6.00;4.90;;;2.50;99.90;;;;;;5026025;28;20899;-56
2022/01/09 11:13:45;;;;;;;6.40;5.13;;;2.50;99.90;;;;;;5023294;28;20498;-57
2022/01/09 11:19:00;;;;;;;7.57;5.80;;;2.50;99.90;;;;;;5025774;28;20473;-57
2022/01/09 11:21:28;;;;;;;6.57;4.63;;;2.50;99.90;;;;;;5032519;28;20496;-57
2022/01/09 11:24:08;;;;;;;9.43;6.20;;;2.40;99.90;;;;;;5026479;28;20459;-57
2022/01/09 11:26:45;;;;;;;5.30;4.80;;;2.50;99.90;;;;;;5028243;28;20500;-56
2022/01/09 11:29:15;;;;;;;6.40;5.10;;;2.40;99.90;;;;;;5026133;28;20596;-56
2022/01/09 11:31:47;;;;;;;4.80;4.40;;;2.50;99.90;;;;;;5026768;28;21089;-56
2022/01/09 11:34:23;;;;;;;5.80;5.07;;;2.50;99.90;;;;;;5026213;28;20483;-56
2022/01/09 11:37:01;;;;;;;12.90;8.57;;;2.50;99.90;;;;;;5028554;28;20490;-56
2022/01/09 11:39:35;;;;;;;7.00;5.03;;;2.60;99.90;;;;;;5023946;28;21083;-56
2022/01/09 11:42:07;;;;;;;12.00;6.80;;;2.60;99.90;;;;;;5025219;28;20490;-59
2022/01/09 11:44:34;;;;;;;15.20;8.60;;;2.50;99.90;;;;;;5023923;28;20762;-57
2022/01/09 11:47:04;;;;;;;14.43;9.43;;;2.60;99.90;;;;;;5027423;28;20459;-57
2022/01/09 11:49:38;;;;;;;17.00;9.10;;;2.50;99.90;;;;;;5027420;28;20483;-58
2022/01/09 11:52:05;;;;;;;6.10;5.50;;;2.70;99.90;;;;;;5032406;28;21283;-57
2022/01/09 11:54:49;;;;;;;7.63;5.23;;;2.70;99.90;;;;;;5030618;28;20469;-57
2022/01/09 11:57:20;;;;;;;5.10;4.20;;;2.70;99.90;;;;;;5026033;28;20476;-58
2022/01/09 11:59:51;;;;;;;6.50;4.30;;;2.80;99.90;;;;;;5029427;28;20570;-58
2022/01/09 12:02:33;;;;;;;5.20;4.80;;;2.80;99.90;;;;;;5032572;28;20463;-58
2022/01/09 12:05:02;;;;;;;7.43;5.53;;;2.80;99.90;;;;;;5029837;28;20891;-56
2022/01/09 12:08:08;;;;;;;6.43;4.70;;;2.80;99.90;;;;;;5029172;28;20463;-58
2022/01/09 12:10:59;;;;;;;5.40;4.80;;;2.80;99.90;;;;;;5032927;28;20490;-57
2022/01/09 12:13:49;;;;;;;4.97;4.37;;;2.80;99.90;;;;;;5027192;28;20545;-53
2022/01/09 12:16:45;;;;;;;8.77;5.30;;;2.90;99.90;;;;;;5031754;28;20964;-57
2022/01/09 12:19:12;;;;;;;6.67;4.57;;;2.90;99.90;;;;;;5029997;28;20688;-57
2022/01/09 12:21:51;;;;;;;5.03;4.50;;;2.90;99.90;;;;;;5029888;28;20502;-56
2022/01/09 12:24:37;;;;;;;6.60;5.03;;;2.90;99.90;;;;;;5030490;28;20462;-56
2022/01/09 12:27:38;;;;;;;6.00;5.10;;;2.90;99.90;;;;;;5026294;28;20477;-56
2022/01/09 12:30:07;;;;;;;5.83;5.13;;;2.90;99.90;;;;;;5031694;28;20849;-56
2022/01/09 12:32:39;;;;;;;8.80;5.10;;;3.00;99.90;;;;;;5027751;28;20467;-57
2022/01/09 12:35:14;;;;;;;8.40;5.20;;;2.90;99.90;;;;;;5031115;28;20865;-56
2022/01/09 12:37:45;;;;;;;6.47;5.83;;;3.00;99.90;;;;;;5030000;28;20492;-58
2022/01/09 12:40:14;;;;;;;5.13;4.63;;;3.00;99.90;;;;;;5028558;28;20471;-56
2022/01/09 12:42:46;;;;;;;9.40;5.47;;;3.00;99.90;;;;;;5030550;28;20880;-56
2022/01/09 12:45:18;;;;;;;8.03;5.07;;;3.00;99.90;;;;;;5026853;28;20603;-55
2022/01/09 12:47:45;;;;;;;4.63;4.20;;;3.10;99.90;;;;;;5022606;28;21440;-56
2022/01/09 12:50:11;;;;;;;5.10;4.60;;;3.10;99.90;;;;;;5028340;28;20586;-56
2022/01/09 12:52:38;;;;;;;7.17;5.03;;;3.10;99.90;;;;;;5028854;28;20459;-55
2022/01/09 12:55:05;;;;;;;5.67;5.07;;;3.10;99.90;;;;;;5024803;28;20486;-55
2022/01/09 12:57:50;;;;;;;7.30;5.00;;;3.20;99.90;;;;;;5025772;28;20462;-56
2022/01/09 13:00:24;;;;;;;6.13;5.23;;;3.20;99.90;;;;;;5029812;28;20494;-56
2022/01/09 13:02:53;;;;;;;6.87;5.70;;;3.30;99.90;;;;;;5027003;28;20925;-55
2022/01/09 13:05:22;;;;;;;8.40;6.53;;;3.20;99.90;;;;;;5024797;28;20474;-56